Doris Moran — WRU2125 — position and weather

sailwx.info

Track history (hours):
 
Tides and Currents Weather Stations Pressure Air Temp Water Temp Dewpoint Dewpoint Depression Visibility Wind Speed Wind Dir Waves Ship Positions

Doris Moran

Owner: MORAN TOWING CORPORATION, New Canaan, CT. More information available from US FCC via Universal Licensing System and Coast Guard Vessel Documentation Center.

Last reported at 2014-Oct-01 13:33 UTC. Time now 2014-Oct-01 14:19 UTC.
Position N 40°38' W 074°08'.

Length 36 m; draft 15 m.

Type: Other ship. MMSI: 366939790.

Date/timePositionNaut miles runAvg speedWind from/ knotsBaromVisibWave heightAir tempDewpointWater temp
2014-Oct-01 13:33N 40°38' W 074°08'0 0.0
2014-Oct-01 12:33N 40°38' W 074°08'0 0.0
2014-Oct-01 11:33N 40°38' W 074°08'0 0.0
2014-Oct-01 10:33N 40°38' W 074°08'0 0.0
2014-Oct-01 09:33N 40°38' W 074°08'0 0.0
2014-Oct-01 08:33N 40°38' W 074°08'4 4.5
2014-Oct-01 07:33N 40°40' W 074°02'0 0.1
2014-Oct-01 06:33N 40°40' W 074°02'4 4.5
2014-Oct-01 05:33N 40°40' W 074°08'2 1.8
2014-Oct-01 04:33N 40°42' W 074°09'2 2.4
2014-Oct-01 03:33N 40°39' W 074°09'1 1.1
2014-Oct-01 02:33N 40°38' W 074°08'0 0.0
2014-Oct-01 01:33N 40°38' W 074°08'1 1.0
2014-Oct-01 00:33N 40°39' W 074°07'0 0.0
2014-Sep-30 23:33N 40°39' W 074°07'0 0.0
2014-Sep-30 22:33N 40°39' W 074°07'0 0.0
2014-Sep-30 21:33N 40°39' W 074°07'0 0.0
2014-Sep-30 20:33N 40°39' W 074°07'5 1.5
2014-Sep-30 17:11N 40°36' W 074°12'5 8.2
2014-Sep-30 16:33N 40°41' W 074°09'1 1.3
2014-Sep-30 15:32N 40°40' W 074°08'2 1.7
2014-Sep-30 14:34N 40°38' W 074°08'0 0.0
2014-Sep-30 13:33N 40°38' W 074°08'0 0.0
2014-Sep-30 12:33N 40°38' W 074°08'0 0.0
2014-Sep-30 11:33N 40°38' W 074°08'2 1.5
2014-Sep-30 10:34N 40°40' W 074°09'2 1.5
2014-Sep-30 09:32N 40°38' W 074°08'0 0.0
2014-Sep-30 08:33N 40°38' W 074°08'0 0.0
2014-Sep-30 07:33N 40°38' W 074°08'0 0.0
2014-Sep-30 06:34N 40°38' W 074°08'5 4.7
2014-Sep-30 05:33N 40°40' W 074°02'0 0.0
2014-Sep-30 04:33N 40°40' W 074°02'0 0.0
2014-Sep-30 03:34N 40°40' W 074°02'0 0.0
2014-Sep-30 02:33N 40°40' W 074°02'0 0.0
2014-Sep-30 01:34N 40°40' W 074°02'0 0.1
2014-Sep-30 00:34N 40°40' W 074°02'0 0.3
2014-Sep-29 23:34N 40°40' W 074°02'4 3.9
2014-Sep-29 22:26N 40°38' W 074°08'0 0.0
2014-Sep-29 21:33N 40°38' W 074°08'0 0.0
2014-Sep-29 20:34N 40°38' W 074°08'0 0.0
2014-Sep-29 19:31N 40°38' W 074°08'0 0.0
2014-Sep-29 18:33N 40°38' W 074°08'0 0.0
2014-Sep-29 17:34N 40°38' W 074°08'0 0.0
2014-Sep-29 16:33N 40°38' W 074°08'0 0.0
2014-Sep-29 15:34N 40°38' W 074°08'0 0.0
2014-Sep-29 14:33N 40°38' W 074°08'0 0.0
2014-Sep-29 13:33N 40°38' W 074°08'0 0.0
2014-Sep-29 12:33N 40°38' W 074°08'0 0.0
2014-Sep-29 11:33N 40°38' W 074°08'0 0.0
2014-Sep-29 10:33N 40°38' W 074°08'2 1.6
2014-Sep-29 09:33N 40°39' W 074°10'2 1.2
2014-Sep-29 08:12N 40°38' W 074°08'0 0.0
2014-Sep-29 07:34N 40°38' W 074°08'0 0.0
2014-Sep-29 06:34N 40°38' W 074°08'0 0.0
2014-Sep-29 05:34N 40°38' W 074°08'0 0.0
2014-Sep-29 04:33N 40°38' W 074°08'0 0.0
2014-Sep-29 03:33N 40°38' W 074°08'0 0.0
2014-Sep-29 02:33N 40°38' W 074°08'0 0.0
2014-Sep-29 01:33N 40°38' W 074°08'0 0.0
2014-Sep-29 00:34N 40°38' W 074°08'0 0.0
2014-Sep-28 23:33N 40°38' W 074°08'0 0.0
2014-Sep-28 22:34N 40°38' W 074°08'0 0.0
2014-Sep-28 21:34N 40°38' W 074°08'1 1.3
2014-Sep-28 20:34N 40°40' W 074°09'1 1.1
2014-Sep-28 19:33N 40°39' W 074°08'0 0.2
2014-Sep-28 18:33N 40°38' W 074°08'0 0.0
2014-Sep-28 17:33N 40°38' W 074°08'0 0.0
2014-Sep-28 16:30N 40°38' W 074°08'0 0.0
2014-Sep-28 15:33N 40°38' W 074°08'0 0.0
2014-Sep-28 14:33N 40°38' W 074°08'0 0.0
2014-Sep-28 13:34N 40°38' W 074°08'0 0.0
2014-Sep-28 12:34N 40°38' W 074°08'0 0.0
2014-Sep-28 11:33N 40°38' W 074°08'0 0.0
2014-Sep-28 10:33N 40°38' W 074°08'0 0.0
2014-Sep-28 09:34N 40°38' W 074°08'0 0.0
2014-Sep-28 08:34N 40°38' W 074°08'0 0.0
2014-Sep-28 07:33N 40°38' W 074°08'0 0.0
2014-Sep-28 06:33N 40°38' W 074°08'0 0.0
2014-Sep-28 05:34N 40°38' W 074°08'0 0.0
2014-Sep-28 04:34N 40°38' W 074°08'0 0.0
2014-Sep-28 03:34N 40°38' W 074°08'0 0.0
2014-Sep-28 02:31N 40°38' W 074°08'0 0.0
2014-Sep-28 01:32N 40°38' W 074°08'0 0.0
2014-Sep-28 00:34N 40°38' W 074°08'3 3.0
2014-Sep-27 23:33N 40°42' W 074°08'0 0.1
2014-Sep-27 22:33N 40°41' W 074°08'1 0.7
2014-Sep-27 21:17N 40°41' W 074°09'3 3.3
2014-Sep-27 20:27N 40°39' W 074°07'0 0.4
2014-Sep-27 19:16N 40°38' W 074°08'2 0.9
2014-Sep-27 17:25N 40°39' W 074°10'0 0.1
2014-Sep-27 16:33N 40°39' W 074°10'1 1.0
2014-Sep-27 15:33N 40°38' W 074°09'1 0.7
2014-Sep-27 14:33N 40°38' W 074°08'0 0.0
2014-Sep-27 13:24N 40°38' W 074°08'2 1.9
2014-Sep-27 12:33N 40°39' W 074°10'0 0.3
2014-Sep-27 11:32N 40°39' W 074°10'2 1.9
2014-Sep-27 10:31N 40°38' W 074°08'0 0.0
2014-Sep-27 09:33N 40°38' W 074°08'0 0.0
2014-Sep-27 08:33N 40°38' W 074°08'0 0.0
2014-Sep-27 07:33N 40°38' W 074°08'0 0.0
2014-Sep-27 06:33N 40°38' W 074°08'0 0.0
2014-Sep-27 05:33N 40°38' W 074°08'0 0.0
2014-Sep-27 04:33N 40°38' W 074°08'0 0.0
2014-Sep-27 03:33N 40°38' W 074°08'4 3.9
2014-Sep-27 02:32N 40°36' W 074°12'1 0.6
2014-Sep-27 01:05N 40°35' W 074°12'2 4.1
2014-Sep-27 00:33N 40°38' W 074°12'4 3.6
2014-Sep-26 23:33N 40°39' W 074°08'0 0.1
2014-Sep-26 22:15N 40°38' W 074°08'0 0.0
2014-Sep-26 19:26N 40°38' W 074°08'0 0.0
2014-Sep-26 18:33N 40°38' W 074°08'0 0.0
2014-Sep-26 17:33N 40°38' W 074°08'0 0.0
2014-Sep-26 16:33N 40°38' W 074°08'0 0.0
2014-Sep-26 15:33N 40°38' W 074°08'4 4.5
2014-Sep-26 14:33N 40°39' W 074°02'1 1.2
2014-Sep-26 13:34N 40°40' W 074°01'2 1.5
2014-Sep-26 12:33N 40°39' W 074°03'0 0.0
2014-Sep-26 11:34N 40°39' W 074°03'0 0.1
2014-Sep-26 10:34N 40°39' W 074°03'0 0.0
2014-Sep-26 09:33N 40°39' W 074°03'0 0.0
2014-Sep-26 08:33N 40°39' W 074°03'0 0.0
2014-Sep-26 07:34N 40°39' W 074°03'0 0.0
2014-Sep-26 06:33N 40°39' W 074°03'0 0.0
2014-Sep-26 05:33N 40°39' W 074°03'5 4.7
2014-Sep-26 04:33N 40°43' W 073°58'7 6.9
2014-Sep-26 03:33N 40°48' W 073°52'6 5.9
2014-Sep-26 02:33N 40°51' W 073°46'11 7.3
2014-Sep-26 01:04N 40°57' W 073°34'611.2
2014-Sep-26 00:33N 40°60' W 073°27'1110.7
2014-Sep-25 23:33N 41°02' W 073°13'1210.6
2014-Sep-25 22:25N 41°04' W 072°57'910.4
2014-Sep-25 21:33N 41°07' W 072°46'10 9.7
2014-Sep-25 20:33N 41°09' W 072°34'9 9.0
2014-Sep-25 19:33N 41°12' W 072°22'9 8.8
2014-Sep-25 18:33N 41°14' W 072°11'9 9.2
2014-Sep-25 17:33N 41°15' W 071°59'1110.6
2014-Sep-25 16:33N 41°17' W 071°45'1010.4
2014-Sep-25 15:33N 41°18' W 071°31'1010.1
2014-Sep-25 14:33N 41°19' W 071°18'1110.7
2014-Sep-25 13:33N 41°24' W 071°05'1010.2
2014-Sep-25 12:32N 41°30' W 070°53'17 8.5
2014-Sep-25 10:30N 41°43' W 070°39'9 6.3
2014-Sep-25 09:08N 41°47' W 070°29'4 6.6
2014-Sep-25 08:31N 41°51' W 070°27'1010.3
2014-Sep-25 07:33N 42°01' W 070°29'1210.5
2014-Sep-25 06:26N 42°12' W 070°34'910.7
2014-Sep-25 05:33N 42°19' W 070°43'9 9.1
2014-Sep-25 04:33N 42°22' W 070°54'5 5.3
2014-Sep-25 03:33N 42°20' W 071°01'0 0.0
2014-Sep-24 14:16N 42°20' W 071°00'7 6.6
2014-Sep-24 13:16N 42°23' W 070°52'6 7.7
2014-Sep-24 12:31N 42°21' W 070°45'1210.3
2014-Sep-24 11:19N 42°11' W 070°34'51 7.5
2014-Sep-24 04:34N 41°25' W 071°03'1010.1
2014-Sep-24 03:33N 41°20' W 071°14'10 9.8
2014-Sep-24 02:33N 41°18' W 071°27'10 9.7
2014-Sep-24 01:33N 41°17' W 071°40'9 9.2
2014-Sep-24 00:33N 41°15' W 071°52'10 8.9
2014-Sep-23 23:28N 41°14' W 072°05'9 9.9
2014-Sep-23 22:33N 41°12' W 072°17'1010.4
2014-Sep-23 21:33N 41°10' W 072°30'1110.9
2014-Sep-23 20:33N 41°11' W 072°45'6 6.0
2014-Sep-23 19:33N 41°12' W 072°52'6 2.4
2014-Sep-23 17:11N 41°18' W 072°54'0 0.0
2014-Sep-23 16:26N 41°18' W 072°54'0 0.0
2014-Sep-23 14:03N 41°18' W 072°54'0 0.0
2014-Sep-23 13:12N 41°18' W 072°54'0 0.0
2014-Sep-23 12:32N 41°18' W 072°54'0 0.0
2014-Sep-23 11:30N 41°18' W 072°54'0 0.0
2014-Sep-23 10:25N 41°18' W 072°54'0 0.0
2014-Sep-23 09:32N 41°18' W 072°54'0 0.0
2014-Sep-23 07:33N 41°18' W 072°54'6 6.4
2014-Sep-23 06:33N 41°11' W 072°55'9 9.2
2014-Sep-23 05:33N 41°06' W 073°05'10 9.8
2014-Sep-23 04:33N 41°02' W 073°17'1010.4
2014-Sep-23 03:33N 40°58' W 073°30'10 9.9
2014-Sep-23 02:33N 40°54' W 073°42'9 8.8
2014-Sep-23 01:32N 40°48' W 073°51'7 7.2
2014-Sep-23 00:33N 40°43' W 073°58'27 5.1
2014-Sep-22 19:15N 41°10' W 073°55'  
Track history (hours):
 
Tides and Currents Weather Stations Pressure Air Temp Water Temp Dewpoint Dewpoint Depression Visibility Wind Speed Wind Dir Waves Ship Positions

Doris Moran

Owner: MORAN TOWING CORPORATION, New Canaan, CT. More information available from US FCC via Universal Licensing System and Coast Guard Vessel Documentation Center.

Last reported at 2014-Oct-01 13:33 UTC. Time now 2014-Oct-01 14:19 UTC.
Position N 40°38' W 074°08'.

Length 36 m; draft 15 m.

Type: Other ship. MMSI: 366939790.

Date/timePositionNaut miles runAvg speedWind from/ knotsBaromVisibWave heightAir tempDewpointWater temp
2014-Oct-01 13:33N 40°38' W 074°08'0 0.0
2014-Oct-01 12:33N 40°38' W 074°08'0 0.0
2014-Oct-01 11:33N 40°38' W 074°08'0 0.0
2014-Oct-01 10:33N 40°38' W 074°08'0 0.0
2014-Oct-01 09:33N 40°38' W 074°08'0 0.0
2014-Oct-01 08:33N 40°38' W 074°08'4 4.5
2014-Oct-01 07:33N 40°40' W 074°02'0 0.1
2014-Oct-01 06:33N 40°40' W 074°02'4 4.5
2014-Oct-01 05:33N 40°40' W 074°08'2 1.8
2014-Oct-01 04:33N 40°42' W 074°09'2 2.4
2014-Oct-01 03:33N 40°39' W 074°09'1 1.1
2014-Oct-01 02:33N 40°38' W 074°08'0 0.0
2014-Oct-01 01:33N 40°38' W 074°08'1 1.0
2014-Oct-01 00:33N 40°39' W 074°07'0 0.0
2014-Sep-30 23:33N 40°39' W 074°07'0 0.0
2014-Sep-30 22:33N 40°39' W 074°07'0 0.0
2014-Sep-30 21:33N 40°39' W 074°07'0 0.0
2014-Sep-30 20:33N 40°39' W 074°07'5 1.5
2014-Sep-30 17:11N 40°36' W 074°12'5 8.2
2014-Sep-30 16:33N 40°41' W 074°09'1 1.3
2014-Sep-30 15:32N 40°40' W 074°08'2 1.7
2014-Sep-30 14:34N 40°38' W 074°08'0 0.0
2014-Sep-30 13:33N 40°38' W 074°08'0 0.0
2014-Sep-30 12:33N 40°38' W 074°08'0 0.0
2014-Sep-30 11:33N 40°38' W 074°08'2 1.5
2014-Sep-30 10:34N 40°40' W 074°09'2 1.5
2014-Sep-30 09:32N 40°38' W 074°08'0 0.0
2014-Sep-30 08:33N 40°38' W 074°08'0 0.0
2014-Sep-30 07:33N 40°38' W 074°08'0 0.0
2014-Sep-30 06:34N 40°38' W 074°08'5 4.7
2014-Sep-30 05:33N 40°40' W 074°02'0 0.0
2014-Sep-30 04:33N 40°40' W 074°02'0 0.0
2014-Sep-30 03:34N 40°40' W 074°02'0 0.0
2014-Sep-30 02:33N 40°40' W 074°02'0 0.0
2014-Sep-30 01:34N 40°40' W 074°02'0 0.1
2014-Sep-30 00:34N 40°40' W 074°02'0 0.3
2014-Sep-29 23:34N 40°40' W 074°02'4 3.9
2014-Sep-29 22:26N 40°38' W 074°08'0 0.0
2014-Sep-29 21:33N 40°38' W 074°08'0 0.0
2014-Sep-29 20:34N 40°38' W 074°08'0 0.0
2014-Sep-29 19:31N 40°38' W 074°08'0 0.0
2014-Sep-29 18:33N 40°38' W 074°08'0 0.0
2014-Sep-29 17:34N 40°38' W 074°08'0 0.0
2014-Sep-29 16:33N 40°38' W 074°08'0 0.0
2014-Sep-29 15:34N 40°38' W 074°08'0 0.0
2014-Sep-29 14:33N 40°38' W 074°08'0 0.0
2014-Sep-29 13:33N 40°38' W 074°08'0 0.0
2014-Sep-29 12:33N 40°38' W 074°08'0 0.0
2014-Sep-29 11:33N 40°38' W 074°08'0 0.0
2014-Sep-29 10:33N 40°38' W 074°08'2 1.6
2014-Sep-29 09:33N 40°39' W 074°10'2 1.2
2014-Sep-29 08:12N 40°38' W 074°08'0 0.0
2014-Sep-29 07:34N 40°38' W 074°08'0 0.0
2014-Sep-29 06:34N 40°38' W 074°08'0 0.0
2014-Sep-29 05:34N 40°38' W 074°08'0 0.0
2014-Sep-29 04:33N 40°38' W 074°08'0 0.0
2014-Sep-29 03:33N 40°38' W 074°08'0 0.0
2014-Sep-29 02:33N 40°38' W 074°08'0 0.0
2014-Sep-29 01:33N 40°38' W 074°08'0 0.0
2014-Sep-29 00:34N 40°38' W 074°08'0 0.0
2014-Sep-28 23:33N 40°38' W 074°08'0 0.0
2014-Sep-28 22:34N 40°38' W 074°08'0 0.0
2014-Sep-28 21:34N 40°38' W 074°08'1 1.3
2014-Sep-28 20:34N 40°40' W 074°09'1 1.1
2014-Sep-28 19:33N 40°39' W 074°08'0 0.2
2014-Sep-28 18:33N 40°38' W 074°08'0 0.0
2014-Sep-28 17:33N 40°38' W 074°08'0 0.0
2014-Sep-28 16:30N 40°38' W 074°08'0 0.0
2014-Sep-28 15:33N 40°38' W 074°08'0 0.0
2014-Sep-28 14:33N 40°38' W 074°08'0 0.0
2014-Sep-28 13:34N 40°38' W 074°08'0 0.0
2014-Sep-28 12:34N 40°38' W 074°08'0 0.0
2014-Sep-28 11:33N 40°38' W 074°08'0 0.0
2014-Sep-28 10:33N 40°38' W 074°08'0 0.0
2014-Sep-28 09:34N 40°38' W 074°08'0 0.0
2014-Sep-28 08:34N 40°38' W 074°08'0 0.0
2014-Sep-28 07:33N 40°38' W 074°08'0 0.0
2014-Sep-28 06:33N 40°38' W 074°08'0 0.0
2014-Sep-28 05:34N 40°38' W 074°08'0 0.0
2014-Sep-28 04:34N 40°38' W 074°08'0 0.0
2014-Sep-28 03:34N 40°38' W 074°08'0 0.0
2014-Sep-28 02:31N 40°38' W 074°08'0 0.0
2014-Sep-28 01:32N 40°38' W 074°08'0 0.0
2014-Sep-28 00:34N 40°38' W 074°08'3 3.0
2014-Sep-27 23:33N 40°42' W 074°08'0 0.1
2014-Sep-27 22:33N 40°41' W 074°08'1 0.7
2014-Sep-27 21:17N 40°41' W 074°09'3 3.3
2014-Sep-27 20:27N 40°39' W 074°07'0 0.4
2014-Sep-27 19:16N 40°38' W 074°08'2 0.9
2014-Sep-27 17:25N 40°39' W 074°10'0 0.1
2014-Sep-27 16:33N 40°39' W 074°10'1 1.0
2014-Sep-27 15:33N 40°38' W 074°09'1 0.7
2014-Sep-27 14:33N 40°38' W 074°08'0 0.0
2014-Sep-27 13:24N 40°38' W 074°08'2 1.9
2014-Sep-27 12:33N 40°39' W 074°10'0 0.3
2014-Sep-27 11:32N 40°39' W 074°10'2 1.9
2014-Sep-27 10:31N 40°38' W 074°08'0 0.0
2014-Sep-27 09:33N 40°38' W 074°08'0 0.0
2014-Sep-27 08:33N 40°38' W 074°08'0 0.0
2014-Sep-27 07:33N 40°38' W 074°08'0 0.0
2014-Sep-27 06:33N 40°38' W 074°08'0 0.0
2014-Sep-27 05:33N 40°38' W 074°08'0 0.0
2014-Sep-27 04:33N 40°38' W 074°08'0 0.0
2014-Sep-27 03:33N 40°38' W 074°08'4 3.9
2014-Sep-27 02:32N 40°36' W 074°12'1 0.6
2014-Sep-27 01:05N 40°35' W 074°12'2 4.1
2014-Sep-27 00:33N 40°38' W 074°12'4 3.6
2014-Sep-26 23:33N 40°39' W 074°08'0 0.1
2014-Sep-26 22:15N 40°38' W 074°08'0 0.0
2014-Sep-26 19:26N 40°38' W 074°08'0 0.0
2014-Sep-26 18:33N 40°38' W 074°08'0 0.0
2014-Sep-26 17:33N 40°38' W 074°08'0 0.0
2014-Sep-26 16:33N 40°38' W 074°08'0 0.0
2014-Sep-26 15:33N 40°38' W 074°08'4 4.5
2014-Sep-26 14:33N 40°39' W 074°02'1 1.2
2014-Sep-26 13:34N 40°40' W 074°01'2 1.5
2014-Sep-26 12:33N 40°39' W 074°03'0 0.0
2014-Sep-26 11:34N 40°39' W 074°03'0 0.1
2014-Sep-26 10:34N 40°39' W 074°03'0 0.0
2014-Sep-26 09:33N 40°39' W 074°03'0 0.0
2014-Sep-26 08:33N 40°39' W 074°03'0 0.0
2014-Sep-26 07:34N 40°39' W 074°03'0 0.0
2014-Sep-26 06:33N 40°39' W 074°03'0 0.0
2014-Sep-26 05:33N 40°39' W 074°03'5 4.7
2014-Sep-26 04:33N 40°43' W 073°58'7 6.9
2014-Sep-26 03:33N 40°48' W 073°52'6 5.9
2014-Sep-26 02:33N 40°51' W 073°46'11 7.3
2014-Sep-26 01:04N 40°57' W 073°34'611.2
2014-Sep-26 00:33N 40°60' W 073°27'1110.7
2014-Sep-25 23:33N 41°02' W 073°13'1210.6
2014-Sep-25 22:25N 41°04' W 072°57'910.4
2014-Sep-25 21:33N 41°07' W 072°46'10 9.7
2014-Sep-25 20:33N 41°09' W 072°34'9 9.0
2014-Sep-25 19:33N 41°12' W 072°22'9 8.8
2014-Sep-25 18:33N 41°14' W 072°11'9 9.2
2014-Sep-25 17:33N 41°15' W 071°59'1110.6
2014-Sep-25 16:33N 41°17' W 071°45'1010.4
2014-Sep-25 15:33N 41°18' W 071°31'1010.1
2014-Sep-25 14:33N 41°19' W 071°18'1110.7
2014-Sep-25 13:33N 41°24' W 071°05'1010.2
2014-Sep-25 12:32N 41°30' W 070°53'17 8.5
2014-Sep-25 10:30N 41°43' W 070°39'9 6.3
2014-Sep-25 09:08N 41°47' W 070°29'4 6.6
2014-Sep-25 08:31N 41°51' W 070°27'1010.3
2014-Sep-25 07:33N 42°01' W 070°29'1210.5
2014-Sep-25 06:26N 42°12' W 070°34'910.7
2014-Sep-25 05:33N 42°19' W 070°43'9 9.1
2014-Sep-25 04:33N 42°22' W 070°54'5 5.3
2014-Sep-25 03:33N 42°20' W 071°01'0 0.0
2014-Sep-24 14:16N 42°20' W 071°00'7 6.6
2014-Sep-24 13:16N 42°23' W 070°52'6 7.7
2014-Sep-24 12:31N 42°21' W 070°45'1210.3
2014-Sep-24 11:19N 42°11' W 070°34'51 7.5
2014-Sep-24 04:34N 41°25' W 071°03'1010.1
2014-Sep-24 03:33N 41°20' W 071°14'10 9.8
2014-Sep-24 02:33N 41°18' W 071°27'10 9.7
2014-Sep-24 01:33N 41°17' W 071°40'9 9.2
2014-Sep-24 00:33N 41°15' W 071°52'10 8.9
2014-Sep-23 23:28N 41°14' W 072°05'9 9.9
2014-Sep-23 22:33N 41°12' W 072°17'1010.4
2014-Sep-23 21:33N 41°10' W 072°30'1110.9
2014-Sep-23 20:33N 41°11' W 072°45'6 6.0
2014-Sep-23 19:33N 41°12' W 072°52'6 2.4
2014-Sep-23 17:11N 41°18' W 072°54'0 0.0
2014-Sep-23 16:26N 41°18' W 072°54'0 0.0
2014-Sep-23 14:03N 41°18' W 072°54'0 0.0
2014-Sep-23 13:12N 41°18' W 072°54'0 0.0
2014-Sep-23 12:32N 41°18' W 072°54'0 0.0
2014-Sep-23 11:30N 41°18' W 072°54'0 0.0
2014-Sep-23 10:25N 41°18' W 072°54'0 0.0
2014-Sep-23 09:32N 41°18' W 072°54'0 0.0
2014-Sep-23 07:33N 41°18' W 072°54'6 6.4
2014-Sep-23 06:33N 41°11' W 072°55'9 9.2
2014-Sep-23 05:33N 41°06' W 073°05'10 9.8
2014-Sep-23 04:33N 41°02' W 073°17'1010.4
2014-Sep-23 03:33N 40°58' W 073°30'10 9.9
2014-Sep-23 02:33N 40°54' W 073°42'9 8.8
2014-Sep-23 01:32N 40°48' W 073°51'7 7.2
2014-Sep-23 00:33N 40°43' W 073°58'27 5.1
2014-Sep-22 19:15N 41°10' W 073°55'  

Dump ship's entire track history